sensor_id;sensor_type;location;lat;lon;timestamp;P1;durP1;ratioP1;P2;durP2;ratioP2
12112;SDS011;6120;52.250;8.478;2023-04-05T16:38:46;5.47;;;2.40;;
12112;SDS011;6120;52.250;8.478;2023-04-05T16:41:14;5.03;;;2.70;;
12112;SDS011;6120;52.250;8.478;2023-04-05T16:43:40;4.75;;;2.95;;
12112;SDS011;6120;52.250;8.478;2023-04-05T16:46:07;4.03;;;2.40;;
12112;SDS011;6120;52.250;8.478;2023-04-05T16:48:34;6.68;;;2.55;;
12112;SDS011;6120;52.250;8.478;2023-04-05T16:51:01;4.45;;;2.40;;
12112;SDS011;6120;52.250;8.478;2023-04-05T16:53:30;4.13;;;2.40;;
12112;SDS011;6120;52.250;8.478;2023-04-05T16:55:56;4.25;;;2.80;;
12112;SDS011;6120;52.250;8.478;2023-04-05T16:58:23;5.68;;;2.72;;
12112;SDS011;6120;52.250;8.478;2023-04-05T17:00:50;7.63;;;3.00;;
12112;SDS011;6120;52.250;8.478;2023-04-05T17:03:20;5.45;;;2.92;;
12112;SDS011;6120;52.250;8.478;2023-04-05T17:05:47;4.03;;;2.40;;
12112;SDS011;6120;52.250;8.478;2023-04-05T17:08:14;6.80;;;2.80;;
12112;SDS011;6120;52.250;8.478;2023-04-05T17:10:40;3.70;;;2.60;;
12112;SDS011;6120;52.250;8.478;2023-04-05T17:13:07;6.30;;;2.80;;
12112;SDS011;6120;52.250;8.478;2023-04-05T17:15:34;4.25;;;2.55;;
12112;SDS011;6120;52.250;8.478;2023-04-05T17:18:01;6.65;;;3.10;;
12112;SDS011;6120;52.250;8.478;2023-04-05T17:20:27;6.05;;;2.58;;
12112;SDS011;6120;52.250;8.478;2023-04-05T17:22:54;5.35;;;2.55;;
12112;SDS011;6120;52.250;8.478;2023-04-05T17:25:23;5.05;;;2.60;;
12112;SDS011;6120;52.250;8.478;2023-04-05T17:27:50;8.95;;;3.15;;
12112;SDS011;6120;52.250;8.478;2023-04-05T17:30:16;5.47;;;2.85;;
12112;SDS011;6120;52.250;8.478;2023-04-05T17:32:43;4.53;;;2.55;;
12112;SDS011;6120;52.250;8.478;2023-04-05T17:35:09;4.28;;;2.30;;
12112;SDS011;6120;52.250;8.478;2023-04-05T17:37:36;5.63;;;3.17;;
12112;SDS011;6120;52.250;8.478;2023-04-05T17:40:03;5.65;;;3.28;;
12112;SDS011;6120;52.250;8.478;2023-04-05T17:42:30;5.97;;;3.05;;
12112;SDS011;6120;52.250;8.478;2023-04-05T17:44:57;5.40;;;3.10;;
12112;SDS011;6120;52.250;8.478;2023-04-05T17:47:23;5.85;;;2.67;;
12112;SDS011;6120;52.250;8.478;2023-04-05T17:49:50;5.40;;;3.08;;
12112;SDS011;6120;52.250;8.478;2023-04-05T17:52:17;7.38;;;3.67;;
12112;SDS011;6120;52.250;8.478;2023-04-05T17:54:43;5.35;;;3.20;;
12112;SDS011;6120;52.250;8.478;2023-04-05T17:57:10;8.13;;;4.50;;
12112;SDS011;6120;52.250;8.478;2023-04-05T17:59:40;5.82;;;3.70;;
12112;SDS011;6120;52.250;8.478;2023-04-05T18:02:08;7.30;;;3.22;;
12112;SDS011;6120;52.250;8.478;2023-04-05T18:04:38;7.13;;;3.20;;
12112;SDS011;6120;52.250;8.478;2023-04-05T18:07:05;5.07;;;3.17;;
12112;SDS011;6120;52.250;8.478;2023-04-05T18:09:33;5.63;;;2.85;;
12112;SDS011;6120;52.250;8.478;2023-04-05T18:12:00;5.85;;;3.22;;
12112;SDS011;6120;52.250;8.478;2023-04-05T18:14:27;6.63;;;4.10;;
12112;SDS011;6120;52.250;8.478;2023-04-05T18:16:55;6.35;;;3.63;;
12112;SDS011;6120;52.250;8.478;2023-04-05T18:19:22;8.60;;;4.32;;
12112;SDS011;6120;52.250;8.478;2023-04-05T18:21:48;9.77;;;4.53;;
12112;SDS011;6120;52.250;8.478;2023-04-05T18:24:15;10.40;;;4.40;;
12112;SDS011;6120;52.250;8.478;2023-04-05T18:26:42;6.47;;;3.80;;
12112;SDS011;6120;52.250;8.478;2023-04-05T18:29:09;5.72;;;3.28;;
12112;SDS011;6120;52.250;8.478;2023-04-05T18:31:35;6.88;;;3.60;;
12112;SDS011;6120;52.250;8.478;2023-04-05T18:34:02;5.93;;;3.58;;
12112;SDS011;6120;52.250;8.478;2023-04-05T18:36:31;6.22;;;3.90;;
12112;SDS011;6120;52.250;8.478;2023-04-05T18:38:59;7.82;;;4.30;;
12112;SDS011;6120;52.250;8.478;2023-04-05T18:41:28;6.78;;;3.95;;
12112;SDS011;6120;52.250;8.478;2023-04-05T18:43:55;6.65;;;3.55;;
12112;SDS011;6120;52.250;8.478;2023-04-05T18:46:24;9.80;;;3.40;;
12112;SDS011;6120;52.250;8.478;2023-04-05T18:48:51;7.15;;;3.45;;
12112;SDS011;6120;52.250;8.478;2023-04-05T18:53:47;6.93;;;3.55;;
12112;SDS011;6120;52.250;8.478;2023-04-05T18:56:14;5.20;;;3.38;;
12112;SDS011;6120;52.250;8.478;2023-04-05T18:58:42;7.75;;;3.72;;
12112;SDS011;6120;52.250;8.478;2023-04-05T19:01:09;7.15;;;3.70;;
12112;SDS011;6120;52.250;8.478;2023-04-05T19:03:39;9.82;;;3.47;;
12112;SDS011;6120;52.250;8.478;2023-04-05T19:06:06;7.13;;;3.90;;
12112;SDS011;6120;52.250;8.478;2023-04-05T19:08:33;5.25;;;2.95;;
12112;SDS011;6120;52.250;8.478;2023-04-05T19:11:00;8.82;;;3.42;;
12112;SDS011;6120;52.250;8.478;2023-04-05T19:13:26;6.05;;;2.90;;
12112;SDS011;6120;52.250;8.478;2023-04-05T19:15:53;7.38;;;3.00;;
12112;SDS011;6120;52.250;8.478;2023-04-05T19:18:19;8.52;;;3.40;;
12112;SDS011;6120;52.250;8.478;2023-04-05T19:20:57;7.05;;;3.35;;
12112;SDS011;6120;52.250;8.478;2023-04-05T19:23:25;11.07;;;4.00;;
12112;SDS011;6120;52.250;8.478;2023-04-05T19:25:53;10.10;;;4.35;;
12112;SDS011;6120;52.250;8.478;2023-04-05T19:28:20;8.77;;;3.83;;
12112;SDS011;6120;52.250;8.478;2023-04-05T19:30:46;9.48;;;3.67;;
12112;SDS011;6120;52.250;8.478;2023-04-05T19:33:13;6.45;;;2.72;;
12112;SDS011;6120;52.250;8.478;2023-04-05T19:35:39;5.78;;;2.70;;
12112;SDS011;6120;52.250;8.478;2023-04-05T19:38:06;4.28;;;2.70;;
12112;SDS011;6120;52.250;8.478;2023-04-05T19:40:34;5.32;;;2.90;;
12112;SDS011;6120;52.250;8.478;2023-04-05T19:43:02;7.43;;;3.13;;
12112;SDS011;6120;52.250;8.478;2023-04-05T19:45:30;4.28;;;2.63;;
12112;SDS011;6120;52.250;8.478;2023-04-05T19:47:58;6.22;;;3.20;;
12112;SDS011;6120;52.250;8.478;2023-04-05T19:50:44;6.40;;;3.05;;
12112;SDS011;6120;52.250;8.478;2023-04-05T19:56:07;4.55;;;2.65;;
12112;SDS011;6120;52.250;8.478;2023-04-05T19:58:37;6.60;;;3.30;;
12112;SDS011;6120;52.250;8.478;2023-04-05T20:01:05;7.30;;;2.95;;
12112;SDS011;6120;52.250;8.478;2023-04-05T20:06:07;5.38;;;3.35;;
12112;SDS011;6120;52.250;8.478;2023-04-05T20:08:41;5.00;;;3.13;;
12112;SDS011;6120;52.250;8.478;2023-04-05T20:11:11;4.60;;;2.88;;
12112;SDS011;6120;52.250;8.478;2023-04-05T20:13:49;4.93;;;2.90;;
12112;SDS011;6120;52.250;8.478;2023-04-05T20:16:23;7.00;;;3.45;;
12112;SDS011;6120;52.250;8.478;2023-04-05T20:18:51;5.65;;;3.08;;
12112;SDS011;6120;52.250;8.478;2023-04-05T20:21:19;6.38;;;3.13;;
12112;SDS011;6120;52.250;8.478;2023-04-05T20:23:46;4.70;;;2.88;;
12112;SDS011;6120;52.250;8.478;2023-04-05T20:26:15;6.45;;;3.47;;
12112;SDS011;6120;52.250;8.478;2023-04-05T20:28:49;7.15;;;2.72;;
12112;SDS011;6120;52.250;8.478;2023-04-05T20:31:29;6.90;;;3.50;;
12112;SDS011;6120;52.250;8.478;2023-04-05T20:34:10;6.72;;;3.05;;
12112;SDS011;6120;52.250;8.478;2023-04-05T20:36:51;5.47;;;3.17;;
12112;SDS011;6120;52.250;8.478;2023-04-05T20:39:23;6.43;;;3.40;;
12112;SDS011;6120;52.250;8.478;2023-04-05T20:41:50;5.43;;;3.03;;
12112;SDS011;6120;52.250;8.478;2023-04-05T20:44:17;7.57;;;3.63;;
12112;SDS011;6120;52.250;8.478;2023-04-05T20:46:44;7.15;;;3.22;;
12112;SDS011;6120;52.250;8.478;2023-04-05T20:49:10;5.55;;;2.92;;
12112;SDS011;6120;52.250;8.478;2023-04-05T20:51:37;7.05;;;3.50;;
12112;SDS011;6120;52.250;8.478;2023-04-05T20:54:07;6.55;;;3.50;;
12112;SDS011;6120;52.250;8.478;2023-04-05T20:56:34;6.65;;;3.63;;
12112;SDS011;6120;52.250;8.478;2023-04-05T20:59:01;6.03;;;3.50;;
